createdAt,value
2019-04-21T00:02:01.708Z,17.50
2019-04-21T00:04:43.191Z,17.60
2019-04-21T00:07:22.067Z,17.70
2019-04-21T00:09:53.430Z,17.60
2019-04-21T00:12:22.800Z,17.50
2019-04-21T00:14:47.967Z,17.40
2019-04-21T00:17:11.007Z,17.50
2019-04-21T00:19:44.256Z,17.50
2019-04-21T00:22:24.777Z,17.50
2019-04-21T00:24:56.840Z,17.70
2019-04-21T00:27:28.115Z,17.70
2019-04-21T00:30:09.063Z,17.80
2019-04-21T00:32:28.294Z,17.90
2019-04-21T00:34:52.965Z,17.80
2019-04-21T00:37:29.634Z,17.80
2019-04-21T00:40:13.191Z,17.70
2019-04-21T00:42:41.577Z,18.00
2019-04-21T00:45:02.073Z,18.00
2019-04-21T00:47:46.379Z,17.80
2019-04-21T00:50:12.802Z,17.70
2019-04-21T00:53:03.531Z,17.80
2019-04-21T00:55:44.491Z,17.80
2019-04-21T00:58:17.489Z,17.80
2019-04-21T01:00:46.331Z,17.60
2019-04-21T01:03:14.819Z,17.70
2019-04-21T01:05:46.762Z,17.50
2019-04-21T01:08:16.079Z,17.10
2019-04-21T01:10:34.671Z,16.80
2019-04-21T01:13:21.619Z,16.40
2019-04-21T01:15:49.043Z,16.20
2019-04-21T01:18:16.455Z,15.90
2019-04-21T01:20:26.759Z,15.80
2019-04-21T01:22:55.909Z,15.60
2019-04-21T01:25:32.160Z,15.50
2019-04-21T01:28:13.573Z,15.30
2019-04-21T01:30:44.942Z,15.10
2019-04-21T01:33:21.911Z,15.00
2019-04-21T01:35:48.006Z,14.90
2019-04-21T01:38:21.652Z,14.80
2019-04-21T01:40:54.429Z,14.90
2019-04-21T01:43:21.874Z,14.60
2019-04-21T01:45:51.948Z,14.50
2019-04-21T01:48:15.854Z,14.40
2019-04-21T01:50:51.279Z,14.20
2019-04-21T01:53:36.639Z,14.10
2019-04-21T01:56:17.289Z,14.00
2019-04-21T01:58:42.896Z,13.90
2019-04-21T02:01:26.110Z,13.60
2019-04-21T02:03:58.382Z,13.50
2019-04-21T02:06:27.477Z,13.30
2019-04-21T02:09:02.115Z,13.20
2019-04-21T02:11:34.186Z,13.10
2019-04-21T02:14:05.930Z,13.00
2019-04-21T02:16:32.720Z,12.80
2019-04-21T02:18:58.452Z,12.80
2019-04-21T02:21:36.517Z,12.70
2019-04-21T02:24:07.095Z,12.70
2019-04-21T02:26:33.667Z,12.50
2019-04-21T02:29:10.670Z,12.40
2019-04-21T02:34:15.261Z,12.20
2019-04-21T02:36:52.945Z,12.10
2019-04-21T02:39:25.033Z,12.10
2019-04-21T02:41:48.942Z,12.00
2019-04-21T02:44:22.919Z,12.10
2019-04-21T02:51:56.795Z,11.90
2019-04-21T02:54:48.268Z,11.90
2019-04-21T02:57:08.974Z,11.90
2019-04-21T02:59:33.790Z,11.80
2019-04-21T03:02:18.339Z,11.70
2019-04-21T03:07:25.427Z,11.70
2019-04-21T03:09:53.114Z,11.70
2019-04-21T03:12:22.698Z,11.60
2019-04-21T03:15:18.230Z,11.60
2019-04-21T03:17:32.459Z,11.60
2019-04-21T03:22:24.788Z,11.50
2019-04-21T03:25:22.802Z,11.50
2019-04-21T03:30:11.138Z,11.60
2019-04-21T03:42:48.247Z,11.60
2019-04-21T03:47:36.000Z,11.50
2019-04-21T03:50:13.080Z,11.50
2019-04-21T04:14:24.434Z,11.10
2019-04-21T04:16:58.502Z,11.20
2019-04-21T04:19:26.384Z,11.20
2019-04-21T04:21:57.201Z,11.20
2019-04-21T04:24:39.721Z,11.10
2019-04-21T04:27:02.367Z,10.90
2019-04-21T04:31:47.426Z,10.70
2019-04-21T04:34:29.240Z,10.60
2019-04-21T04:47:30.005Z,10.30
2019-04-21T05:07:39.346Z,10.60
2019-04-21T05:14:59.391Z,10.50
2019-04-21T05:17:30.992Z,10.50
2019-04-21T05:20:08.796Z,10.40
2019-04-21T05:24:50.962Z,10.30
2019-04-21T05:27:42.827Z,10.20
2019-04-21T05:33:20.750Z,10.20
2019-04-21T05:35:57.252Z,10.30
2019-04-21T05:38:34.636Z,10.30
2019-04-21T05:41:00.191Z,10.30
2019-04-21T05:43:39.187Z,10.30
2019-04-21T05:46:14.304Z,10.30
2019-04-21T05:48:50.588Z,10.40
2019-04-21T05:51:09.072Z,10.30
2019-04-21T05:53:46.708Z,10.40
2019-04-21T05:56:17.370Z,10.30
2019-04-21T05:58:48.482Z,10.20
2019-04-21T06:01:27.598Z,10.20
2019-04-21T06:06:26.200Z,10.40
2019-04-21T06:08:53.642Z,10.50
2019-04-21T06:11:29.000Z,10.40
2019-04-21T06:16:28.710Z,10.50
2019-04-21T06:19:00.930Z,10.70
2019-04-21T06:21:28.100Z,10.70
2019-04-21T06:23:57.763Z,10.80
2019-04-21T06:28:59.305Z,11.00
2019-04-21T06:31:50.258Z,11.30
2019-04-21T06:33:58.867Z,11.40
2019-04-21T06:37:03.576Z,11.40
2019-04-21T06:39:28.311Z,11.60
2019-04-21T06:41:53.047Z,11.70
2019-04-21T06:44:23.996Z,11.90
2019-04-21T06:46:49.014Z,12.00
2019-04-21T06:49:27.827Z,12.20
2019-04-21T06:52:11.436Z,12.30
2019-04-21T06:54:31.712Z,12.40
2019-04-21T06:56:56.358Z,12.60
2019-04-21T06:59:28.095Z,12.80
2019-04-21T07:02:19.393Z,13.00
2019-04-21T07:04:29.561Z,13.20
2019-04-21T07:07:03.217Z,13.30
2019-04-21T07:09:31.126Z,13.50
2019-04-21T07:12:00.017Z,13.70
2019-04-21T07:14:48.143Z,13.80
2019-04-21T07:17:11.488Z,14.00
2019-04-21T07:19:42.286Z,14.20
2019-04-21T07:22:11.335Z,14.40
2019-04-21T07:24:41.735Z,14.50
2019-04-21T07:27:11.701Z,14.50
2019-04-21T07:29:41.574Z,14.70
2019-04-21T07:32:12.434Z,14.70
2019-04-21T07:34:38.001Z,14.80
2019-04-21T07:37:06.604Z,14.80
2019-04-21T07:39:40.526Z,15.10
2019-04-21T07:42:10.830Z,15.40
2019-04-21T07:44:36.268Z,15.80
2019-04-21T07:47:13.414Z,16.20
2019-04-21T07:50:00.917Z,16.80
2019-04-21T07:52:48.971Z,17.40
2019-04-21T07:55:19.772Z,18.40
2019-04-21T07:57:35.488Z,18.80
2019-04-21T08:02:43.761Z,19.60
2019-04-21T08:05:13.031Z,19.70
2019-04-21T08:10:10.472Z,19.10
2019-04-21T08:12:37.519Z,18.90
2019-04-21T08:17:44.726Z,18.40
2019-04-21T08:20:13.794Z,18.20
2019-04-21T08:22:46.822Z,18.00
2019-04-21T08:25:15.154Z,17.90
2019-04-21T08:27:54.552Z,18.00
2019-04-21T08:30:22.598Z,18.20
2019-04-21T08:33:00.805Z,18.40
2019-04-21T08:37:49.535Z,19.30
2019-04-21T08:40:27.312Z,19.90
2019-04-21T08:42:51.052Z,19.90
2019-04-21T08:45:22.001Z,20.20
2019-04-21T08:47:56.599Z,20.40
2019-04-21T08:50:22.583Z,20.80
2019-04-21T08:52:56.839Z,20.40
2019-04-21T08:55:49.306Z,20.80
2019-04-21T08:58:30.954Z,21.30
2019-04-21T09:01:14.110Z,21.60
2019-04-21T09:03:53.069Z,21.30
2019-04-21T09:08:52.271Z,21.50
2019-04-21T09:11:18.838Z,21.70
2019-04-21T09:13:54.748Z,21.70
2019-04-21T09:16:26.449Z,21.80
2019-04-21T09:18:52.899Z,21.80
2019-04-21T09:21:35.773Z,22.00
2019-04-21T09:23:56.430Z,22.10
2019-04-21T09:26:29.454Z,22.30
2019-04-21T09:28:53.390Z,22.60
2019-04-21T09:31:17.948Z,22.00
2019-04-21T09:33:50.171Z,21.70
2019-04-21T09:36:20.124Z,21.50
2019-04-21T09:38:57.408Z,21.40
2019-04-21T09:41:22.370Z,21.50
2019-04-21T09:43:52.146Z,21.00
2019-04-21T09:46:20.874Z,21.00
2019-04-21T09:48:57.244Z,21.00
2019-04-21T09:51:20.556Z,20.60
2019-04-21T09:53:57.240Z,20.60
2019-04-21T09:56:31.383Z,20.90
2019-04-21T09:59:03.099Z,21.60
2019-04-21T10:01:32.266Z,22.10
2019-04-21T10:03:57.224Z,22.50
2019-04-21T10:06:25.923Z,22.80
2019-04-21T10:08:58.545Z,23.00
2019-04-21T10:11:26.875Z,23.50
2019-04-21T10:13:55.912Z,24.00
2019-04-21T10:16:46.616Z,24.20
2019-04-21T10:19:15.541Z,24.50
2019-04-21T10:21:44.522Z,25.00
2019-04-21T10:24:13.371Z,25.20
2019-04-21T10:26:43.063Z,25.50
2019-04-21T10:29:17.001Z,25.80
2019-04-21T10:31:42.861Z,26.40
2019-04-21T10:34:11.904Z,26.70
2019-04-21T10:36:41.195Z,26.30
2019-04-21T10:39:11.516Z,26.20
2019-04-21T10:41:41.522Z,26.20
2019-04-21T10:44:11.485Z,26.60
2019-04-21T10:46:40.654Z,26.50
2019-04-21T10:49:10.709Z,26.60
2019-04-21T10:51:41.060Z,26.70
2019-04-21T10:54:11.433Z,26.60
2019-04-21T10:56:43.831Z,26.90
2019-04-21T10:59:12.124Z,27.00
2019-04-21T11:01:41.281Z,26.90
2019-04-21T11:04:22.781Z,26.70
2019-04-21T11:06:46.442Z,26.40
2019-04-21T11:09:15.912Z,25.80
2019-04-21T11:11:48.116Z,25.40
2019-04-21T11:14:17.568Z,25.30
2019-04-21T11:16:49.044Z,25.50
2019-04-21T11:19:18.034Z,25.60
2019-04-21T11:21:47.236Z,25.70
2019-04-21T11:24:16.472Z,25.60
2019-04-21T11:26:47.645Z,25.50
2019-04-21T11:29:17.135Z,25.50
2019-04-21T11:31:47.322Z,25.50
2019-04-21T11:34:16.353Z,25.30
2019-04-21T11:36:45.953Z,25.50
2019-04-21T11:39:33.525Z,25.00
2019-04-21T11:41:54.569Z,24.70
2019-04-21T11:44:24.807Z,24.50
2019-04-21T11:46:54.399Z,24.50
2019-04-21T11:49:24.272Z,24.30
2019-04-21T11:51:55.122Z,24.40
2019-04-21T11:54:24.933Z,24.40
2019-04-21T11:56:54.875Z,24.30
2019-04-21T11:59:24.257Z,24.10
2019-04-21T12:01:54.027Z,23.80
2019-04-21T12:04:23.439Z,23.70
2019-04-21T12:06:55.594Z,23.60
2019-04-21T12:09:23.238Z,23.50
2019-04-21T12:11:53.597Z,23.50
2019-04-21T12:14:23.761Z,23.40
2019-04-21T12:16:53.037Z,23.30
2019-04-21T12:19:22.902Z,23.10
2019-04-21T12:22:02.397Z,22.90
2019-04-21T12:24:24.981Z,22.90
2019-04-21T12:26:53.979Z,22.70
2019-04-21T12:29:22.930Z,22.80
2019-04-21T12:32:20.232Z,22.80
2019-04-21T12:34:51.754Z,22.70
2019-04-21T12:37:19.870Z,22.70
2019-04-21T12:39:48.777Z,22.70
2019-04-21T12:42:18.575Z,22.60
2019-04-21T12:44:47.607Z,22.50
2019-04-21T12:47:16.560Z,22.40
2019-04-21T12:49:45.599Z,22.20
2019-04-21T12:52:15.641Z,22.30
2019-04-21T12:54:45.845Z,22.30
2019-04-21T12:57:14.913Z,22.40
2019-04-21T12:59:44.666Z,22.40
2019-04-21T13:02:13.826Z,22.40
2019-04-21T13:04:43.947Z,22.40
2019-04-21T13:07:13.344Z,22.40
2019-04-21T13:09:42.437Z,22.20
2019-04-21T13:12:11.441Z,22.40
2019-04-21T13:14:40.284Z,22.20
2019-04-21T13:17:09.865Z,22.20
2019-04-21T13:19:39.107Z,22.10
2019-04-21T13:22:08.099Z,22.00
2019-04-21T13:24:37.939Z,22.00
2019-04-21T13:27:08.885Z,21.90
2019-04-21T13:29:38.568Z,22.10
2019-04-21T13:32:26.967Z,22.00
2019-04-21T13:34:57.045Z,21.90
2019-04-21T13:37:27.683Z,22.00
2019-04-21T13:40:35.948Z,22.00
2019-04-21T13:42:51.685Z,22.10
2019-04-21T13:45:18.318Z,22.10
2019-04-21T13:47:48.519Z,22.10
2019-04-21T13:50:19.307Z,22.20
2019-04-21T13:52:48.942Z,22.20
2019-04-21T13:55:19.400Z,22.30
2019-04-21T13:57:50.501Z,22.20
2019-04-21T14:00:21.448Z,22.20
2019-04-21T14:02:52.424Z,22.30
2019-04-21T14:05:22.394Z,22.20
2019-04-21T14:07:52.337Z,22.20
2019-04-21T14:10:21.967Z,22.30
2019-04-21T14:12:50.895Z,22.30
2019-04-21T14:15:22.010Z,22.30
2019-04-21T14:17:51.257Z,22.30
2019-04-21T14:20:21.585Z,22.30
2019-04-21T14:22:55.746Z,22.30
2019-04-21T14:25:28.197Z,22.40
2019-04-21T14:28:04.048Z,22.40
2019-04-21T14:30:34.641Z,22.40
2019-04-21T14:33:04.493Z,22.40
2019-04-21T14:35:34.842Z,22.50
2019-04-21T14:38:04.903Z,22.50
2019-04-21T14:40:35.527Z,22.50
2019-04-21T14:43:05.920Z,22.40
2019-04-21T14:45:52.774Z,22.30
2019-04-21T14:48:41.097Z,22.20
2019-04-21T14:51:37.006Z,22.20
2019-04-21T14:54:20.618Z,22.30
2019-04-21T14:56:51.273Z,22.30
2019-04-21T14:59:21.392Z,22.30
2019-04-21T15:01:51.697Z,22.20
2019-04-21T15:04:22.286Z,22.20
2019-04-21T15:06:51.749Z,22.20
2019-04-21T15:09:21.046Z,22.20
2019-04-21T15:11:50.085Z,22.20
2019-04-21T15:14:20.114Z,22.30
2019-04-21T15:16:49.484Z,22.30
2019-04-21T15:19:18.682Z,22.20
2019-04-21T15:21:48.110Z,22.20
2019-04-21T15:24:18.370Z,22.20
2019-04-21T15:26:48.653Z,22.30
2019-04-21T15:29:18.091Z,22.20
2019-04-21T15:31:48.310Z,22.20
2019-04-21T15:34:17.415Z,22.40
2019-04-21T15:36:46.319Z,22.30
2019-04-21T15:39:16.059Z,22.20
2019-04-21T15:41:45.071Z,22.10
2019-04-21T15:44:16.457Z,22.20
2019-04-21T15:46:48.120Z,22.20
2019-04-21T15:49:17.542Z,22.10
2019-04-21T15:51:46.516Z,22.00
2019-04-21T15:54:16.483Z,21.90
2019-04-21T15:56:58.648Z,21.90
2019-04-21T15:59:50.655Z,21.80
2019-04-21T16:02:40.368Z,21.90
2019-04-21T16:05:11.009Z,21.90
2019-04-21T16:07:40.301Z,21.80
2019-04-21T16:10:13.055Z,21.70
2019-04-21T16:12:41.024Z,21.70
2019-04-21T16:15:10.629Z,21.70
2019-04-21T16:17:39.575Z,21.60
2019-04-21T16:20:12.208Z,21.60
2019-04-21T16:22:42.329Z,21.50
2019-04-21T16:25:12.832Z,21.60
2019-04-21T16:27:43.392Z,21.60
2019-04-21T16:30:15.583Z,21.60
2019-04-21T16:32:45.913Z,21.50
2019-04-21T16:35:16.923Z,21.50
2019-04-21T16:37:47.746Z,21.40
2019-04-21T16:40:17.425Z,21.40
2019-04-21T16:42:46.336Z,21.40
2019-04-21T16:45:16.892Z,21.30
2019-04-21T16:47:48.902Z,21.20
2019-04-21T16:50:17.048Z,21.20
2019-04-21T16:52:52.163Z,21.00
2019-04-21T16:55:33.184Z,20.90
2019-04-21T16:58:25.124Z,20.90
2019-04-21T17:01:03.323Z,20.80
2019-04-21T17:03:28.608Z,20.70
2019-04-21T17:06:04.650Z,20.60
2019-04-21T17:08:33.865Z,20.50
2019-04-21T17:11:12.502Z,20.40
2019-04-21T17:13:33.732Z,20.30
2019-04-21T17:16:30.459Z,20.30
2019-04-21T17:18:47.611Z,20.30
2019-04-21T17:21:05.666Z,20.20
2019-04-21T17:23:35.575Z,20.20
2019-04-21T17:26:05.415Z,20.10
2019-04-21T17:28:36.355Z,19.90
2019-04-21T17:31:06.584Z,19.90
2019-04-21T17:33:37.037Z,19.90
2019-04-21T17:36:07.163Z,19.90
2019-04-21T17:38:36.413Z,19.70
2019-04-21T17:41:15.569Z,19.70
2019-04-21T17:43:37.431Z,19.70
2019-04-21T17:46:06.901Z,19.60
2019-04-21T17:48:36.642Z,19.40
2019-04-21T17:51:11.794Z,19.30
2019-04-21T17:53:57.632Z,19.20
2019-04-21T17:56:53.751Z,19.20
2019-04-21T17:59:25.079Z,19.10
2019-04-21T18:01:48.423Z,19.20
2019-04-21T18:04:18.166Z,19.10
2019-04-21T18:07:27.503Z,18.80
2019-04-21T18:10:04.721Z,18.70
2019-04-21T18:12:33.569Z,18.50
2019-04-21T18:15:00.071Z,18.40
2019-04-21T18:17:22.530Z,18.30
2019-04-21T18:19:54.868Z,18.30
2019-04-21T18:22:45.559Z,18.10
2019-04-21T18:25:29.543Z,18.00
2019-04-21T18:27:47.054Z,17.70
2019-04-21T18:30:40.233Z,17.60
2019-04-21T18:33:15.560Z,17.60
2019-04-21T18:36:00.683Z,17.50
2019-04-21T18:38:59.768Z,17.40
2019-04-21T18:41:10.789Z,17.10
2019-04-21T18:44:06.738Z,17.00
2019-04-21T18:46:38.628Z,17.00
2019-04-21T18:49:02.663Z,17.00
2019-04-21T18:51:57.237Z,16.90
2019-04-21T18:54:36.060Z,16.80
2019-04-21T18:57:06.816Z,16.80
2019-04-21T18:59:33.947Z,16.60
2019-04-21T19:02:02.444Z,16.60
2019-04-21T19:04:29.147Z,16.50
2019-04-21T19:07:06.697Z,16.40
2019-04-21T19:09:59.591Z,16.20
2019-04-21T19:12:17.389Z,16.10
2019-04-21T19:14:45.666Z,16.10
2019-04-21T19:18:04.958Z,16.10
2019-04-21T19:22:17.150Z,15.90
2019-04-21T19:24:52.272Z,15.80
2019-04-21T19:27:22.580Z,15.80
2019-04-21T19:30:01.653Z,15.80
2019-04-21T19:32:27.216Z,15.60
2019-04-21T19:34:40.294Z,15.60
2019-04-21T19:37:14.429Z,15.50
2019-04-21T19:39:50.854Z,15.50
2019-04-21T19:42:18.306Z,15.50
2019-04-21T19:44:56.702Z,15.40
2019-04-21T19:47:35.145Z,15.30
2019-04-21T19:50:00.256Z,15.00
2019-04-21T19:52:26.627Z,15.00
2019-04-21T19:54:46.517Z,15.00
2019-04-21T19:57:13.925Z,14.80
2019-04-21T19:59:49.606Z,14.80
2019-04-21T20:02:14.237Z,14.70
2019-04-21T20:04:52.217Z,14.70
2019-04-21T20:07:26.280Z,14.70
2019-04-21T20:10:11.607Z,14.50
2019-04-21T20:12:39.857Z,14.40
2019-04-21T20:15:13.563Z,14.40
2019-04-21T20:17:36.574Z,14.30
2019-04-21T20:19:49.969Z,14.20
2019-04-21T20:22:24.016Z,14.10
2019-04-21T20:24:58.652Z,14.20
2019-04-21T20:27:37.490Z,14.10
2019-04-21T20:30:07.246Z,14.00
2019-04-21T20:32:46.441Z,13.90
2019-04-21T20:35:14.315Z,13.90
2019-04-21T20:37:42.346Z,13.70
2019-04-21T20:40:02.231Z,13.70
2019-04-21T20:42:40.302Z,13.60
2019-04-21T20:45:28.951Z,13.60
2019-04-21T20:47:35.325Z,13.50
2019-04-21T20:50:12.650Z,13.50
2019-04-21T20:52:47.666Z,13.40
2019-04-21T20:55:11.884Z,13.40
2019-04-21T20:57:41.824Z,13.30
2019-04-21T21:00:21.780Z,13.20
2019-04-21T21:02:58.191Z,13.10
2019-04-21T21:05:17.518Z,12.90
2019-04-21T21:07:56.950Z,12.90
2019-04-21T21:10:20.472Z,12.80
2019-04-21T21:13:00.620Z,12.90
2019-04-21T21:15:24.685Z,12.90
2019-04-21T21:18:01.551Z,12.80
2019-04-21T21:20:31.022Z,12.80
2019-04-21T21:22:50.604Z,12.70
2019-04-21T21:25:33.871Z,12.70
2019-04-21T21:27:51.741Z,12.50
2019-04-21T21:30:27.725Z,12.40
2019-04-21T21:33:00.626Z,12.30
2019-04-21T21:35:34.497Z,12.20
2019-04-21T21:38:08.192Z,12.20
2019-04-21T21:40:31.686Z,12.20
2019-04-21T21:42:48.096Z,12.10
2019-04-21T21:45:23.495Z,12.10
2019-04-21T21:48:04.633Z,12.10
2019-04-21T21:50:26.058Z,11.90
2019-04-21T21:53:02.200Z,12.00
2019-04-21T21:55:21.542Z,11.90
2019-04-21T21:57:55.325Z,11.80
2019-04-21T22:00:26.019Z,11.70
2019-04-21T22:02:58.266Z,11.60
2019-04-21T22:05:29.278Z,11.70
2019-04-21T22:07:58.369Z,11.60
2019-04-21T22:10:27.704Z,11.50
2019-04-21T22:13:03.987Z,11.50
2019-04-21T22:15:30.270Z,11.40
2019-04-21T22:18:21.701Z,11.40
2019-04-21T22:20:47.535Z,11.40
2019-04-21T22:23:07.297Z,11.50
2019-04-21T22:25:33.942Z,11.40
2019-04-21T22:28:02.038Z,11.50
2019-04-21T22:30:38.500Z,11.50
2019-04-21T22:33:07.995Z,11.50
2019-04-21T22:35:41.970Z,11.40
2019-04-21T22:38:21.146Z,11.50
2019-04-21T22:40:49.113Z,11.40
2019-04-21T22:43:16.830Z,11.40
2019-04-21T22:45:35.666Z,11.30
2019-04-21T22:48:13.528Z,11.20
2019-04-21T22:50:38.309Z,11.20
2019-04-21T22:53:09.894Z,11.20
2019-04-21T22:55:39.026Z,11.20
2019-04-21T22:58:09.420Z,11.20
2019-04-21T23:00:44.431Z,11.40
2019-04-21T23:03:17.334Z,11.20
2019-04-21T23:05:43.017Z,11.20
2019-04-21T23:08:11.202Z,11.20
2019-04-21T23:10:41.418Z,11.20
2019-04-21T23:13:16.879Z,11.20
2019-04-21T23:15:46.148Z,11.20
2019-04-21T23:18:30.703Z,11.20
2019-04-21T23:21:03.368Z,11.10
2019-04-21T23:23:37.010Z,11.10
2019-04-21T23:26:01.129Z,11.20
2019-04-21T23:28:40.559Z,11.20
2019-04-21T23:31:06.922Z,11.20
2019-04-21T23:33:21.123Z,11.10
2019-04-21T23:35:49.379Z,11.30
2019-04-21T23:38:26.517Z,11.30
2019-04-21T23:40:55.895Z,11.40
2019-04-21T23:43:24.396Z,11.20
2019-04-21T23:45:50.605Z,11.30
2019-04-21T23:48:35.418Z,11.30
2019-04-21T23:51:01.857Z,11.20
2019-04-21T23:53:23.583Z,11.10
2019-04-21T23:55:53.082Z,11.10
2019-04-21T23:58:25.686Z,10.80
